sensor_id;sensor_type;location;lat;lon;timestamp;P1;durP1;ratioP1;P2;durP2;ratioP2
56201;SDS011;42117;50.360;3.508;2023-07-29T00:00:48;3.90;;;2.20;;
56201;SDS011;42117;50.360;3.508;2023-07-29T00:03:14;3.20;;;2.63;;
56201;SDS011;42117;50.360;3.508;2023-07-29T00:05:40;3.00;;;2.40;;
56201;SDS011;42117;50.360;3.508;2023-07-29T00:08:06;2.70;;;2.50;;
56201;SDS011;42117;50.360;3.508;2023-07-29T00:10:34;2.40;;;2.30;;
56201;SDS011;42117;50.360;3.508;2023-07-29T00:13:01;2.80;;;2.70;;
56201;SDS011;42117;50.360;3.508;2023-07-29T00:15:27;3.33;;;2.70;;
56201;SDS011;42117;50.360;3.508;2023-07-29T00:17:53;2.40;;;2.30;;
56201;SDS011;42117;50.360;3.508;2023-07-29T00:20:19;2.90;;;2.70;;
56201;SDS011;42117;50.360;3.508;2023-07-29T00:22:45;3.10;;;2.90;;
56201;SDS011;42117;50.360;3.508;2023-07-29T00:25:11;2.85;;;2.65;;
56201;SDS011;42117;50.360;3.508;2023-07-29T00:27:37;2.88;;;2.58;;
56201;SDS011;42117;50.360;3.508;2023-07-29T00:30:03;2.58;;;2.47;;
56201;SDS011;42117;50.360;3.508;2023-07-29T00:32:29;2.85;;;2.50;;
56201;SDS011;42117;50.360;3.508;2023-07-29T00:34:56;2.70;;;2.60;;
56201;SDS011;42117;50.360;3.508;2023-07-29T00:37:22;4.05;;;2.80;;
56201;SDS011;42117;50.360;3.508;2023-07-29T00:39:48;3.42;;;2.80;;
56201;SDS011;42117;50.360;3.508;2023-07-29T00:42:14;3.40;;;2.72;;
56201;SDS011;42117;50.360;3.508;2023-07-29T00:44:40;2.88;;;2.67;;
56201;SDS011;42117;50.360;3.508;2023-07-29T00:47:06;6.27;;;3.07;;
56201;SDS011;42117;50.360;3.508;2023-07-29T00:49:32;5.47;;;3.00;;
56201;SDS011;42117;50.360;3.508;2023-07-29T00:51:59;2.90;;;2.80;;
56201;SDS011;42117;50.360;3.508;2023-07-29T00:54:25;12.15;;;3.28;;
56201;SDS011;42117;50.360;3.508;2023-07-29T00:56:51;2.88;;;2.70;;
56201;SDS011;42117;50.360;3.508;2023-07-29T00:59:17;2.90;;;2.70;;
56201;SDS011;42117;50.360;3.508;2023-07-29T01:01:43;3.20;;;2.60;;
56201;SDS011;42117;50.360;3.508;2023-07-29T01:04:09;2.60;;;2.50;;
56201;SDS011;42117;50.360;3.508;2023-07-29T01:06:58;2.93;;;2.73;;
56201;SDS011;42117;50.360;3.508;2023-07-29T01:09:33;3.17;;;2.97;;
56201;SDS011;42117;50.360;3.508;2023-07-29T01:12:12;3.70;;;3.00;;
56201;SDS011;42117;50.360;3.508;2023-07-29T01:14:55;3.30;;;3.10;;
56201;SDS011;42117;50.360;3.508;2023-07-29T01:17:25;3.63;;;3.33;;
56201;SDS011;42117;50.360;3.508;2023-07-29T01:22:20;3.60;;;3.35;;
56201;SDS011;42117;50.360;3.508;2023-07-29T01:24:47;4.83;;;3.33;;
56201;SDS011;42117;50.360;3.508;2023-07-29T01:27:13;3.73;;;3.40;;
56201;SDS011;42117;50.360;3.508;2023-07-29T01:29:39;3.70;;;3.47;;
56201;SDS011;42117;50.360;3.508;2023-07-29T01:32:14;3.40;;;3.10;;
56201;SDS011;42117;50.360;3.508;2023-07-29T01:34:45;4.03;;;3.60;;
56201;SDS011;42117;50.360;3.508;2023-07-29T01:37:14;3.97;;;3.27;;
56201;SDS011;42117;50.360;3.508;2023-07-29T01:39:40;4.05;;;3.47;;
56201;SDS011;42117;50.360;3.508;2023-07-29T01:42:08;5.25;;;3.30;;
56201;SDS011;42117;50.360;3.508;2023-07-29T01:44:34;3.60;;;3.30;;
56201;SDS011;42117;50.360;3.508;2023-07-29T01:47:00;2.95;;;2.75;;
56201;SDS011;42117;50.360;3.508;2023-07-29T01:49:26;4.30;;;2.92;;
56201;SDS011;42117;50.360;3.508;2023-07-29T01:51:52;2.78;;;2.58;;
56201;SDS011;42117;50.360;3.508;2023-07-29T01:54:18;3.22;;;2.70;;
56201;SDS011;42117;50.360;3.508;2023-07-29T01:56:44;6.77;;;2.80;;
56201;SDS011;42117;50.360;3.508;2023-07-29T01:59:10;3.10;;;2.80;;
56201;SDS011;42117;50.360;3.508;2023-07-29T02:01:38;3.78;;;2.90;;
56201;SDS011;42117;50.360;3.508;2023-07-29T02:04:04;5.65;;;3.00;;
56201;SDS011;42117;50.360;3.508;2023-07-29T02:06:30;5.70;;;3.10;;
56201;SDS011;42117;50.360;3.508;2023-07-29T02:08:56;2.83;;;2.60;;
56201;SDS011;42117;50.360;3.508;2023-07-29T02:11:22;3.03;;;2.73;;
56201;SDS011;42117;50.360;3.508;2023-07-29T02:13:52;2.63;;;2.42;;
56201;SDS011;42117;50.360;3.508;2023-07-29T02:16:18;3.38;;;3.10;;
56201;SDS011;42117;50.360;3.508;2023-07-29T02:18:44;4.68;;;2.67;;
56201;SDS011;42117;50.360;3.508;2023-07-29T02:21:10;2.78;;;2.60;;
56201;SDS011;42117;50.360;3.508;2023-07-29T02:23:36;5.40;;;2.80;;
56201;SDS011;42117;50.360;3.508;2023-07-29T02:26:02;3.45;;;2.92;;
56201;SDS011;42117;50.360;3.508;2023-07-29T02:28:28;3.23;;;2.40;;
56201;SDS011;42117;50.360;3.508;2023-07-29T02:31:08;2.67;;;2.50;;
56201;SDS011;42117;50.360;3.508;2023-07-29T02:33:35;3.45;;;3.15;;
56201;SDS011;42117;50.360;3.508;2023-07-29T02:36:01;3.60;;;3.30;;
56201;SDS011;42117;50.360;3.508;2023-07-29T02:38:27;5.97;;;3.33;;
56201;SDS011;42117;50.360;3.508;2023-07-29T02:40:53;4.53;;;3.30;;
56201;SDS011;42117;50.360;3.508;2023-07-29T02:43:19;5.13;;;3.35;;
56201;SDS011;42117;50.360;3.508;2023-07-29T02:45:45;3.67;;;3.37;;
56201;SDS011;42117;50.360;3.508;2023-07-29T02:48:11;3.95;;;3.47;;
56201;SDS011;42117;50.360;3.508;2023-07-29T02:50:37;4.75;;;2.95;;
56201;SDS011;42117;50.360;3.508;2023-07-29T02:53:03;6.05;;;3.30;;
56201;SDS011;42117;50.360;3.508;2023-07-29T02:55:30;6.22;;;3.45;;
56201;SDS011;42117;50.360;3.508;2023-07-29T02:57:56;4.60;;;3.13;;
56201;SDS011;42117;50.360;3.508;2023-07-29T03:00:22;3.13;;;2.83;;
56201;SDS011;42117;50.360;3.508;2023-07-29T03:02:49;4.05;;;2.78;;
56201;SDS011;42117;50.360;3.508;2023-07-29T03:05:15;3.25;;;2.95;;
56201;SDS011;42117;50.360;3.508;2023-07-29T03:07:41;3.58;;;2.78;;
56201;SDS011;42117;50.360;3.508;2023-07-29T03:10:08;5.60;;;3.00;;
56201;SDS011;42117;50.360;3.508;2023-07-29T03:12:36;4.60;;;2.80;;
56201;SDS011;42117;50.360;3.508;2023-07-29T03:15:02;3.13;;;2.92;;
56201;SDS011;42117;50.360;3.508;2023-07-29T03:17:28;3.42;;;3.13;;
56201;SDS011;42117;50.360;3.508;2023-07-29T03:19:54;3.05;;;2.83;;
56201;SDS011;42117;50.360;3.508;2023-07-29T03:22:20;3.10;;;2.80;;
56201;SDS011;42117;50.360;3.508;2023-07-29T03:24:46;3.30;;;3.00;;
56201;SDS011;42117;50.360;3.508;2023-07-29T03:27:12;4.27;;;3.00;;
56201;SDS011;42117;50.360;3.508;2023-07-29T03:29:40;4.00;;;2.67;;
56201;SDS011;42117;50.360;3.508;2023-07-29T03:32:06;2.97;;;2.60;;
56201;SDS011;42117;50.360;3.508;2023-07-29T03:34:33;2.65;;;2.45;;
56201;SDS011;42117;50.360;3.508;2023-07-29T03:37:00;3.50;;;2.63;;
56201;SDS011;42117;50.360;3.508;2023-07-29T03:39:26;2.80;;;2.60;;
56201;SDS011;42117;50.360;3.508;2023-07-29T03:41:55;2.83;;;2.63;;
56201;SDS011;42117;50.360;3.508;2023-07-29T03:44:21;4.35;;;2.60;;
56201;SDS011;42117;50.360;3.508;2023-07-29T03:46:47;3.20;;;2.90;;
56201;SDS011;42117;50.360;3.508;2023-07-29T03:49:13;4.53;;;2.50;;
56201;SDS011;42117;50.360;3.508;2023-07-29T03:51:39;3.80;;;2.63;;
56201;SDS011;42117;50.360;3.508;2023-07-29T03:54:05;2.83;;;2.72;;
56201;SDS011;42117;50.360;3.508;2023-07-29T03:56:31;3.38;;;3.08;;
56201;SDS011;42117;50.360;3.508;2023-07-29T03:59:04;3.00;;;2.70;;
56201;SDS011;42117;50.360;3.508;2023-07-29T04:01:30;3.33;;;3.05;;
56201;SDS011;42117;50.360;3.508;2023-07-29T04:03:56;3.65;;;3.00;;
56201;SDS011;42117;50.360;3.508;2023-07-29T04:06:22;3.95;;;3.00;;
56201;SDS011;42117;50.360;3.508;2023-07-29T04:08:48;3.08;;;2.88;;
56201;SDS011;42117;50.360;3.508;2023-07-29T04:11:14;3.50;;;3.07;;
56201;SDS011;42117;50.360;3.508;2023-07-29T04:13:40;2.73;;;2.63;;
56201;SDS011;42117;50.360;3.508;2023-07-29T04:16:06;3.30;;;3.00;;
56201;SDS011;42117;50.360;3.508;2023-07-29T04:18:32;3.20;;;2.90;;
56201;SDS011;42117;50.360;3.508;2023-07-29T04:20:58;3.20;;;3.00;;
56201;SDS011;42117;50.360;3.508;2023-07-29T04:23:24;3.55;;;3.30;;
56201;SDS011;42117;50.360;3.508;2023-07-29T04:25:51;3.50;;;3.20;;
56201;SDS011;42117;50.360;3.508;2023-07-29T04:28:17;4.63;;;3.10;;
56201;SDS011;42117;50.360;3.508;2023-07-29T04:30:43;3.10;;;3.00;;
56201;SDS011;42117;50.360;3.508;2023-07-29T04:33:09;3.38;;;3.03;;
56201;SDS011;42117;50.360;3.508;2023-07-29T04:35:35;2.97;;;2.78;;
56201;SDS011;42117;50.360;3.508;2023-07-29T04:38:01;2.75;;;2.55;;
56201;SDS011;42117;50.360;3.508;2023-07-29T04:40:27;2.57;;;2.37;;
56201;SDS011;42117;50.360;3.508;2023-07-29T04:42:53;3.08;;;2.80;;
56201;SDS011;42117;50.360;3.508;2023-07-29T04:45:19;3.40;;;3.00;;
56201;SDS011;42117;50.360;3.508;2023-07-29T04:47:45;2.97;;;2.78;;
56201;SDS011;42117;50.360;3.508;2023-07-29T04:50:11;3.10;;;2.90;;
56201;SDS011;42117;50.360;3.508;2023-07-29T04:52:38;3.35;;;3.15;;
56201;SDS011;42117;50.360;3.508;2023-07-29T04:55:04;4.80;;;3.40;;
56201;SDS011;42117;50.360;3.508;2023-07-29T04:57:30;3.05;;;2.75;;
56201;SDS011;42117;50.360;3.508;2023-07-29T04:59:56;2.80;;;2.60;;
56201;SDS011;42117;50.360;3.508;2023-07-29T05:02:22;3.65;;;2.90;;
56201;SDS011;42117;50.360;3.508;2023-07-29T05:04:48;5.90;;;2.90;;
56201;SDS011;42117;50.360;3.508;2023-07-29T05:07:14;5.28;;;2.80;;
56201;SDS011;42117;50.360;3.508;2023-07-29T05:09:40;2.83;;;2.72;;
56201;SDS011;42117;50.360;3.508;2023-07-29T05:12:06;3.95;;;2.85;;
56201;SDS011;42117;50.360;3.508;2023-07-29T05:14:32;3.90;;;2.50;;
56201;SDS011;42117;50.360;3.508;2023-07-29T05:16:58;3.72;;;2.95;;
56201;SDS011;42117;50.360;3.508;2023-07-29T05:19:25;3.00;;;2.80;;
56201;SDS011;42117;50.360;3.508;2023-07-29T05:21:51;3.13;;;3.03;;
56201;SDS011;42117;50.360;3.508;2023-07-29T05:24:17;4.07;;;3.08;;
56201;SDS011;42117;50.360;3.508;2023-07-29T05:26:43;2.75;;;2.50;;
56201;SDS011;42117;50.360;3.508;2023-07-29T05:29:09;2.35;;;2.25;;
56201;SDS011;42117;50.360;3.508;2023-07-29T05:31:35;2.53;;;2.40;;
56201;SDS011;42117;50.360;3.508;2023-07-29T05:34:01;3.47;;;2.30;;
56201;SDS011;42117;50.360;3.508;2023-07-29T05:36:27;4.32;;;2.95;;
56201;SDS011;42117;50.360;3.508;2023-07-29T05:38:54;2.20;;;2.10;;
56201;SDS011;42117;50.360;3.508;2023-07-29T05:41:20;2.30;;;2.10;;
56201;SDS011;42117;50.360;3.508;2023-07-29T05:43:46;2.90;;;2.70;;
56201;SDS011;42117;50.360;3.508;2023-07-29T05:46:12;2.95;;;2.38;;
56201;SDS011;42117;50.360;3.508;2023-07-29T05:48:38;2.53;;;2.33;;
56201;SDS011;42117;50.360;3.508;2023-07-29T05:51:04;2.53;;;2.42;;
56201;SDS011;42117;50.360;3.508;2023-07-29T05:53:30;3.10;;;2.80;;
56201;SDS011;42117;50.360;3.508;2023-07-29T05:55:57;2.50;;;2.40;;
56201;SDS011;42117;50.360;3.508;2023-07-29T05:58:23;2.85;;;2.75;;
56201;SDS011;42117;50.360;3.508;2023-07-29T06:00:49;3.00;;;2.67;;
56201;SDS011;42117;50.360;3.508;2023-07-29T06:03:14;3.70;;;2.63;;
56201;SDS011;42117;50.360;3.508;2023-07-29T06:05:40;3.33;;;2.83;;
56201;SDS011;42117;50.360;3.508;2023-07-29T06:08:06;2.88;;;2.70;;
56201;SDS011;42117;50.360;3.508;2023-07-29T06:10:33;3.10;;;2.90;;
56201;SDS011;42117;50.360;3.508;2023-07-29T06:13:00;4.10;;;2.83;;
56201;SDS011;42117;50.360;3.508;2023-07-29T06:15:26;3.20;;;3.10;;
56201;SDS011;42117;50.360;3.508;2023-07-29T06:17:53;4.57;;;3.40;;
56201;SDS011;42117;50.360;3.508;2023-07-29T06:20:19;3.33;;;3.03;;
56201;SDS011;42117;50.360;3.508;2023-07-29T06:22:45;11.40;;;3.70;;
56201;SDS011;42117;50.360;3.508;2023-07-29T06:25:11;8.43;;;3.28;;
56201;SDS011;42117;50.360;3.508;2023-07-29T06:27:37;4.82;;;3.42;;
56201;SDS011;42117;50.360;3.508;2023-07-29T06:30:03;4.05;;;3.50;;
56201;SDS011;42117;50.360;3.508;2023-07-29T06:32:29;3.60;;;3.08;;
56201;SDS011;42117;50.360;3.508;2023-07-29T06:34:55;6.90;;;3.13;;
56201;SDS011;42117;50.360;3.508;2023-07-29T06:37:21;3.30;;;3.00;;
56201;SDS011;42117;50.360;3.508;2023-07-29T06:39:47;2.95;;;2.75;;
56201;SDS011;42117;50.360;3.508;2023-07-29T06:42:13;6.03;;;3.53;;
56201;SDS011;42117;50.360;3.508;2023-07-29T06:44:40;3.10;;;3.00;;
56201;SDS011;42117;50.360;3.508;2023-07-29T06:47:06;3.85;;;3.45;;
56201;SDS011;42117;50.360;3.508;2023-07-29T06:49:32;3.55;;;3.40;;
56201;SDS011;42117;50.360;3.508;2023-07-29T06:51:58;4.05;;;3.33;;
56201;SDS011;42117;50.360;3.508;2023-07-29T06:54:24;3.33;;;3.13;;
56201;SDS011;42117;50.360;3.508;2023-07-29T06:56:51;3.20;;;3.10;;
56201;SDS011;42117;50.360;3.508;2023-07-29T06:59:17;3.28;;;3.08;;
56201;SDS011;42117;50.360;3.508;2023-07-29T07:01:43;3.60;;;3.25;;
56201;SDS011;42117;50.360;3.508;2023-07-29T07:04:09;3.80;;;3.37;;
56201;SDS011;42117;50.360;3.508;2023-07-29T07:06:35;3.65;;;3.33;;
56201;SDS011;42117;50.360;3.508;2023-07-29T07:09:01;3.25;;;3.05;;
56201;SDS011;42117;50.360;3.508;2023-07-29T07:11:28;3.30;;;3.20;;
56201;SDS011;42117;50.360;3.508;2023-07-29T07:13:54;3.60;;;3.30;;
56201;SDS011;42117;50.360;3.508;2023-07-29T07:16:20;3.57;;;2.90;;
56201;SDS011;42117;50.360;3.508;2023-07-29T07:18:46;3.40;;;3.20;;
56201;SDS011;42117;50.360;3.508;2023-07-29T07:21:12;4.60;;;3.00;;
56201;SDS011;42117;50.360;3.508;2023-07-29T07:23:38;3.55;;;3.35;;
56201;SDS011;42117;50.360;3.508;2023-07-29T07:26:04;3.53;;;3.33;;
56201;SDS011;42117;50.360;3.508;2023-07-29T07:28:30;4.95;;;3.47;;
56201;SDS011;42117;50.360;3.508;2023-07-29T07:30:56;4.65;;;3.25;;
56201;SDS011;42117;50.360;3.508;2023-07-29T07:33:22;4.68;;;3.10;;
56201;SDS011;42117;50.360;3.508;2023-07-29T07:35:48;3.03;;;2.90;;
56201;SDS011;42117;50.360;3.508;2023-07-29T07:38:14;2.97;;;2.80;;
56201;SDS011;42117;50.360;3.508;2023-07-29T07:40:40;5.30;;;3.25;;
56201;SDS011;42117;50.360;3.508;2023-07-29T07:43:06;3.05;;;2.75;;
56201;SDS011;42117;50.360;3.508;2023-07-29T07:45:32;3.88;;;3.00;;
56201;SDS011;42117;50.360;3.508;2023-07-29T07:47:58;2.80;;;2.60;;
56201;SDS011;42117;50.360;3.508;2023-07-29T07:50:24;2.85;;;2.60;;
56201;SDS011;42117;50.360;3.508;2023-07-29T07:52:50;3.20;;;2.70;;
56201;SDS011;42117;50.360;3.508;2023-07-29T07:55:16;2.90;;;2.80;;
56201;SDS011;42117;50.360;3.508;2023-07-29T07:57:42;2.80;;;2.70;;
56201;SDS011;42117;50.360;3.508;2023-07-29T08:00:08;2.40;;;2.30;;
56201;SDS011;42117;50.360;3.508;2023-07-29T08:02:35;2.47;;;2.30;;
56201;SDS011;42117;50.360;3.508;2023-07-29T08:05:01;2.50;;;2.40;;
56201;SDS011;42117;50.360;3.508;2023-07-29T08:07:27;2.33;;;2.25;;
56201;SDS011;42117;50.360;3.508;2023-07-29T08:09:53;2.83;;;2.72;;
56201;SDS011;42117;50.360;3.508;2023-07-29T08:12:19;3.10;;;2.87;;
56201;SDS011;42117;50.360;3.508;2023-07-29T08:14:45;3.88;;;2.90;;
56201;SDS011;42117;50.360;3.508;2023-07-29T08:17:11;2.95;;;2.75;;
56201;SDS011;42117;50.360;3.508;2023-07-29T08:19:37;3.78;;;3.47;;
56201;SDS011;42117;50.360;3.508;2023-07-29T08:22:03;3.07;;;2.97;;
56201;SDS011;42117;50.360;3.508;2023-07-29T08:24:29;3.28;;;3.08;;
56201;SDS011;42117;50.360;3.508;2023-07-29T08:26:55;3.40;;;3.17;;
56201;SDS011;42117;50.360;3.508;2023-07-29T08:29:21;2.58;;;2.47;;
56201;SDS011;42117;50.360;3.508;2023-07-29T08:31:47;2.95;;;2.80;;
56201;SDS011;42117;50.360;3.508;2023-07-29T08:34:13;3.10;;;2.90;;
56201;SDS011;42117;50.360;3.508;2023-07-29T08:36:39;3.40;;;3.20;;
56201;SDS011;42117;50.360;3.508;2023-07-29T08:39:05;3.05;;;2.85;;
56201;SDS011;42117;50.360;3.508;2023-07-29T08:41:37;2.97;;;2.78;;
56201;SDS011;42117;50.360;3.508;2023-07-29T08:44:12;3.08;;;2.97;;
56201;SDS011;42117;50.360;3.508;2023-07-29T08:46:43;3.13;;;2.70;;
56201;SDS011;42117;50.360;3.508;2023-07-29T08:49:11;3.40;;;3.10;;
56201;SDS011;42117;50.360;3.508;2023-07-29T08:51:38;3.53;;;3.00;;
56201;SDS011;42117;50.360;3.508;2023-07-29T08:54:05;3.78;;;2.70;;
56201;SDS011;42117;50.360;3.508;2023-07-29T08:56:31;3.05;;;2.95;;
56201;SDS011;42117;50.360;3.508;2023-07-29T08:58:57;2.53;;;2.53;;
56201;SDS011;42117;50.360;3.508;2023-07-29T09:01:25;3.20;;;2.93;;
56201;SDS011;42117;50.360;3.508;2023-07-29T09:03:51;3.25;;;2.95;;
56201;SDS011;42117;50.360;3.508;2023-07-29T09:06:17;3.10;;;2.90;;
56201;SDS011;42117;50.360;3.508;2023-07-29T09:08:44;2.78;;;2.67;;
56201;SDS011;42117;50.360;3.508;2023-07-29T09:11:12;3.20;;;2.90;;
56201;SDS011;42117;50.360;3.508;2023-07-29T09:13:38;4.97;;;3.00;;
56201;SDS011;42117;50.360;3.508;2023-07-29T09:16:04;2.70;;;2.60;;
56201;SDS011;42117;50.360;3.508;2023-07-29T09:18:30;2.85;;;2.75;;
56201;SDS011;42117;50.360;3.508;2023-07-29T09:20:58;3.20;;;3.10;;
56201;SDS011;42117;50.360;3.508;2023-07-29T09:23:25;2.83;;;2.72;;
56201;SDS011;42117;50.360;3.508;2023-07-29T09:26:00;3.50;;;3.30;;
56201;SDS011;42117;50.360;3.508;2023-07-29T09:28:26;2.92;;;2.83;;
56201;SDS011;42117;50.360;3.508;2023-07-29T09:30:52;2.67;;;2.53;;
56201;SDS011;42117;50.360;3.508;2023-07-29T09:33:18;9.57;;;2.72;;
56201;SDS011;42117;50.360;3.508;2023-07-29T09:35:45;3.73;;;2.77;;
56201;SDS011;42117;50.360;3.508;2023-07-29T09:38:14;2.30;;;2.30;;
56201;SDS011;42117;50.360;3.508;2023-07-29T09:40:41;2.28;;;2.20;;
56201;SDS011;42117;50.360;3.508;2023-07-29T09:43:09;2.72;;;2.53;;
56201;SDS011;42117;50.360;3.508;2023-07-29T09:45:35;2.25;;;2.20;;
56201;SDS011;42117;50.360;3.508;2023-07-29T09:48:01;3.53;;;2.50;;
56201;SDS011;42117;50.360;3.508;2023-07-29T09:50:28;2.50;;;2.30;;
56201;SDS011;42117;50.360;3.508;2023-07-29T09:52:55;2.00;;;1.90;;
56201;SDS011;42117;50.360;3.508;2023-07-29T09:55:23;2.33;;;2.22;;
56201;SDS011;42117;50.360;3.508;2023-07-29T09:57:57;2.40;;;2.30;;
56201;SDS011;42117;50.360;3.508;2023-07-29T10:00:31;3.03;;;2.80;;
56201;SDS011;42117;50.360;3.508;2023-07-29T10:02:57;2.80;;;2.70;;
56201;SDS011;42117;50.360;3.508;2023-07-29T10:05:27;3.22;;;2.63;;
56201;SDS011;42117;50.360;3.508;2023-07-29T10:07:54;2.40;;;2.30;;
56201;SDS011;42117;50.360;3.508;2023-07-29T10:10:20;2.50;;;2.40;;
56201;SDS011;42117;50.360;3.508;2023-07-29T10:12:46;2.92;;;2.78;;
56201;SDS011;42117;50.360;3.508;2023-07-29T10:15:13;2.33;;;2.25;;
56201;SDS011;42117;50.360;3.508;2023-07-29T10:17:39;2.50;;;2.45;;
56201;SDS011;42117;50.360;3.508;2023-07-29T10:20:08;2.40;;;2.30;;
56201;SDS011;42117;50.360;3.508;2023-07-29T10:22:38;2.95;;;2.85;;
56201;SDS011;42117;50.360;3.508;2023-07-29T10:25:07;2.80;;;2.70;;
56201;SDS011;42117;50.360;3.508;2023-07-29T10:27:35;2.90;;;2.80;;
56201;SDS011;42117;50.360;3.508;2023-07-29T10:30:01;2.85;;;2.75;;
56201;SDS011;42117;50.360;3.508;2023-07-29T10:32:29;3.25;;;3.15;;
56201;SDS011;42117;50.360;3.508;2023-07-29T10:34:56;3.10;;;2.90;;
56201;SDS011;42117;50.360;3.508;2023-07-29T10:37:22;3.10;;;3.00;;
56201;SDS011;42117;50.360;3.508;2023-07-29T10:39:53;3.77;;;3.00;;
56201;SDS011;42117;50.360;3.508;2023-07-29T10:42:19;2.88;;;2.70;;
56201;SDS011;42117;50.360;3.508;2023-07-29T10:44:45;2.70;;;2.60;;
56201;SDS011;42117;50.360;3.508;2023-07-29T10:47:14;2.30;;;2.30;;
56201;SDS011;42117;50.360;3.508;2023-07-29T10:49:41;2.47;;;2.38;;
56201;SDS011;42117;50.360;3.508;2023-07-29T10:52:07;2.20;;;2.20;;
56201;SDS011;42117;50.360;3.508;2023-07-29T10:54:41;1.90;;;1.90;;
56201;SDS011;42117;50.360;3.508;2023-07-29T10:57:07;2.20;;;2.17;;
56201;SDS011;42117;50.360;3.508;2023-07-29T10:59:38;2.22;;;2.13;;
56201;SDS011;42117;50.360;3.508;2023-07-29T11:02:11;2.17;;;2.17;;
56201;SDS011;42117;50.360;3.508;2023-07-29T11:04:47;2.13;;;2.03;;
56201;SDS011;42117;50.360;3.508;2023-07-29T11:09:40;1.63;;;1.63;;
56201;SDS011;42117;50.360;3.508;2023-07-29T11:14:51;2.00;;;2.00;;
56201;SDS011;42117;50.360;3.508;2023-07-29T11:17:17;1.83;;;1.83;;
56201;SDS011;42117;50.360;3.508;2023-07-29T11:19:43;1.90;;;1.90;;
56201;SDS011;42117;50.360;3.508;2023-07-29T11:22:10;1.77;;;1.67;;
56201;SDS011;42117;50.360;3.508;2023-07-29T11:24:37;1.98;;;1.98;;
56201;SDS011;42117;50.360;3.508;2023-07-29T11:27:03;1.80;;;1.80;;
56201;SDS011;42117;50.360;3.508;2023-07-29T11:29:29;2.50;;;2.40;;
56201;SDS011;42117;50.360;3.508;2023-07-29T11:31:55;2.00;;;2.00;;
56201;SDS011;42117;50.360;3.508;2023-07-29T11:34:31;1.67;;;1.67;;
56201;SDS011;42117;50.360;3.508;2023-07-29T11:36:57;2.03;;;2.03;;
56201;SDS011;42117;50.360;3.508;2023-07-29T11:39:23;1.90;;;1.90;;
56201;SDS011;42117;50.360;3.508;2023-07-29T11:41:49;2.35;;;2.25;;
56201;SDS011;42117;50.360;3.508;2023-07-29T11:44:18;1.93;;;1.93;;
56201;SDS011;42117;50.360;3.508;2023-07-29T11:46:44;1.88;;;1.88;;
56201;SDS011;42117;50.360;3.508;2023-07-29T11:49:10;2.20;;;2.20;;
56201;SDS011;42117;50.360;3.508;2023-07-29T11:51:36;1.80;;;1.80;;
56201;SDS011;42117;50.360;3.508;2023-07-29T11:54:03;1.70;;;1.70;;
56201;SDS011;42117;50.360;3.508;2023-07-29T11:56:29;2.13;;;2.13;;
56201;SDS011;42117;50.360;3.508;2023-07-29T11:58:55;1.70;;;1.70;;
56201;SDS011;42117;50.360;3.508;2023-07-29T12:01:22;2.30;;;2.20;;
56201;SDS011;42117;50.360;3.508;2023-07-29T12:03:49;2.47;;;2.38;;
56201;SDS011;42117;50.360;3.508;2023-07-29T12:06:16;2.50;;;2.30;;
56201;SDS011;42117;50.360;3.508;2023-07-29T12:08:42;2.47;;;2.47;;
56201;SDS011;42117;50.360;3.508;2023-07-29T12:11:08;2.40;;;2.40;;
56201;SDS011;42117;50.360;3.508;2023-07-29T12:13:37;2.80;;;2.70;;
56201;SDS011;42117;50.360;3.508;2023-07-29T12:16:03;2.50;;;2.50;;
56201;SDS011;42117;50.360;3.508;2023-07-29T12:18:30;2.80;;;2.70;;
56201;SDS011;42117;50.360;3.508;2023-07-29T12:20:56;3.00;;;2.90;;
56201;SDS011;42117;50.360;3.508;2023-07-29T12:23:25;3.20;;;2.90;;
56201;SDS011;42117;50.360;3.508;2023-07-29T12:25:56;3.00;;;2.90;;
56201;SDS011;42117;50.360;3.508;2023-07-29T12:28:22;3.40;;;3.20;;
56201;SDS011;42117;50.360;3.508;2023-07-29T12:30:53;3.65;;;3.35;;
56201;SDS011;42117;50.360;3.508;2023-07-29T12:35:57;3.00;;;2.90;;
56201;SDS011;42117;50.360;3.508;2023-07-29T12:38:25;2.80;;;2.70;;
56201;SDS011;42117;50.360;3.508;2023-07-29T12:40:51;2.70;;;2.60;;
56201;SDS011;42117;50.360;3.508;2023-07-29T12:43:17;2.67;;;2.50;;
56201;SDS011;42117;50.360;3.508;2023-07-29T12:45:43;2.97;;;2.90;;
56201;SDS011;42117;50.360;3.508;2023-07-29T12:48:09;2.65;;;2.65;;
56201;SDS011;42117;50.360;3.508;2023-07-29T12:50:36;2.80;;;2.70;;
56201;SDS011;42117;50.360;3.508;2023-07-29T12:53:02;3.08;;;2.97;;
56201;SDS011;42117;50.360;3.508;2023-07-29T12:55:28;2.97;;;2.95;;
56201;SDS011;42117;50.360;3.508;2023-07-29T12:57:54;2.92;;;2.83;;
56201;SDS011;42117;50.360;3.508;2023-07-29T13:00:20;3.40;;;3.10;;
56201;SDS011;42117;50.360;3.508;2023-07-29T13:02:46;2.53;;;2.53;;
56201;SDS011;42117;50.360;3.508;2023-07-29T13:05:12;2.80;;;2.70;;
56201;SDS011;42117;50.360;3.508;2023-07-29T13:07:39;3.05;;;2.95;;
56201;SDS011;42117;50.360;3.508;2023-07-29T13:10:05;2.60;;;2.60;;
56201;SDS011;42117;50.360;3.508;2023-07-29T13:12:31;3.20;;;3.00;;
56201;SDS011;42117;50.360;3.508;2023-07-29T13:14:58;3.70;;;3.60;;
56201;SDS011;42117;50.360;3.508;2023-07-29T13:17:24;2.97;;;2.67;;
56201;SDS011;42117;50.360;3.508;2023-07-29T13:19:50;2.97;;;2.78;;
56201;SDS011;42117;50.360;3.508;2023-07-29T13:22:16;3.08;;;2.97;;
56201;SDS011;42117;50.360;3.508;2023-07-29T13:24:42;2.97;;;2.88;;
56201;SDS011;42117;50.360;3.508;2023-07-29T13:27:08;4.15;;;4.00;;
56201;SDS011;42117;50.360;3.508;2023-07-29T13:29:34;3.85;;;3.65;;
56201;SDS011;42117;50.360;3.508;2023-07-29T13:32:00;4.55;;;4.25;;
56201;SDS011;42117;50.360;3.508;2023-07-29T13:34:26;4.90;;;4.70;;
56201;SDS011;42117;50.360;3.508;2023-07-29T13:36:52;5.82;;;5.43;;
56201;SDS011;42117;50.360;3.508;2023-07-29T13:39:18;5.20;;;4.90;;
56201;SDS011;42117;50.360;3.508;2023-07-29T13:41:44;6.20;;;5.50;;
56201;SDS011;42117;50.360;3.508;2023-07-29T13:44:10;6.32;;;5.93;;
56201;SDS011;42117;50.360;3.508;2023-07-29T13:46:37;6.63;;;6.18;;
56201;SDS011;42117;50.360;3.508;2023-07-29T13:49:03;62.85;;;59.55;;
56201;SDS011;42117;50.360;3.508;2023-07-29T13:51:29;108.90;;;102.90;;
56201;SDS011;42117;50.360;3.508;2023-07-29T13:53:55;114.88;;;108.38;;
56201;SDS011;42117;50.360;3.508;2023-07-29T13:56:21;121.73;;;114.93;;
56201;SDS011;42117;50.360;3.508;2023-07-29T13:58:47;128.57;;;121.10;;
56201;SDS011;42117;50.360;3.508;2023-07-29T14:01:13;136.68;;;128.38;;
56201;SDS011;42117;50.360;3.508;2023-07-29T14:03:39;143.45;;;134.75;;
56201;SDS011;42117;50.360;3.508;2023-07-29T14:06:05;152.60;;;143.20;;
56201;SDS011;42117;50.360;3.508;2023-07-29T14:08:31;151.63;;;142.23;;
56201;SDS011;42117;50.360;3.508;2023-07-29T14:10:57;154.80;;;144.57;;
56201;SDS011;42117;50.360;3.508;2023-07-29T14:13:23;157.88;;;147.98;;
56201;SDS011;42117;50.360;3.508;2023-07-29T14:15:49;156.70;;;147.20;;
56201;SDS011;42117;50.360;3.508;2023-07-29T14:18:15;154.85;;;145.45;;
56201;SDS011;42117;50.360;3.508;2023-07-29T14:20:41;156.48;;;147.00;;
56201;SDS011;42117;50.360;3.508;2023-07-29T14:23:07;155.40;;;145.55;;
56201;SDS011;42117;50.360;3.508;2023-07-29T14:25:33;156.50;;;147.00;;
56201;SDS011;42117;50.360;3.508;2023-07-29T14:27:59;153.70;;;144.30;;
56201;SDS011;42117;50.360;3.508;2023-07-29T14:30:25;157.57;;;148.17;;
56201;SDS011;42117;50.360;3.508;2023-07-29T14:32:51;157.45;;;148.15;;
56201;SDS011;42117;50.360;3.508;2023-07-29T14:35:17;154.52;;;145.32;;
56201;SDS011;42117;50.360;3.508;2023-07-29T14:37:43;153.77;;;144.95;;
56201;SDS011;42117;50.360;3.508;2023-07-29T14:40:09;150.32;;;141.63;;
56201;SDS011;42117;50.360;3.508;2023-07-29T14:42:35;155.07;;;146.20;;
56201;SDS011;42117;50.360;3.508;2023-07-29T14:45:01;151.13;;;142.43;;
56201;SDS011;42117;50.360;3.508;2023-07-29T14:47:27;152.10;;;143.63;;
56201;SDS011;42117;50.360;3.508;2023-07-29T14:49:57;147.45;;;139.70;;